sensor_id;sensor_type;location;lat;lon;timestamp;temperature;humidity
62363;DHT22;48396;48.426;1.500;2022-07-03T00:01:45;23.00;60.80
62363;DHT22;48396;48.426;1.500;2022-07-03T00:04:10;23.20;60.40
62363;DHT22;48396;48.426;1.500;2022-07-03T00:06:36;23.00;60.70
62363;DHT22;48396;48.426;1.500;2022-07-03T00:09:03;22.80;61.10
62363;DHT22;48396;48.426;1.500;2022-07-03T00:11:29;22.90;60.90
62363;DHT22;48396;48.426;1.500;2022-07-03T00:13:55;22.80;61.10
62363;DHT22;48396;48.426;1.500;2022-07-03T00:16:21;22.70;61.30
62363;DHT22;48396;48.426;1.500;2022-07-03T00:18:48;23.00;60.90
62363;DHT22;48396;48.426;1.500;2022-07-03T00:21:16;22.90;60.50
62363;DHT22;48396;48.426;1.500;2022-07-03T00:24:03;22.80;61.10
62363;DHT22;48396;48.426;1.500;2022-07-03T00:26:31;22.70;61.10
62363;DHT22;48396;48.426;1.500;2022-07-03T00:28:59;22.40;62.20
62363;DHT22;48396;48.426;1.500;2022-07-03T00:31:25;22.40;62.30
62363;DHT22;48396;48.426;1.500;2022-07-03T00:33:53;22.40;62.20
62363;DHT22;48396;48.426;1.500;2022-07-03T00:36:21;22.30;62.40
62363;DHT22;48396;48.426;1.500;2022-07-03T00:38:47;22.50;61.80
62363;DHT22;48396;48.426;1.500;2022-07-03T00:41:32;22.30;62.30
62363;DHT22;48396;48.426;1.500;2022-07-03T00:43:59;22.10;63.40
62363;DHT22;48396;48.426;1.500;2022-07-03T00:46:25;22.00;63.50
62363;DHT22;48396;48.426;1.500;2022-07-03T00:48:51;22.10;63.30
62363;DHT22;48396;48.426;1.500;2022-07-03T00:51:28;22.30;63.20
62363;DHT22;48396;48.426;1.500;2022-07-03T00:53:58;22.20;63.00
62363;DHT22;48396;48.426;1.500;2022-07-03T00:56:25;22.10;63.70
62363;DHT22;48396;48.426;1.500;2022-07-03T00:58:52;22.10;64.00
62363;DHT22;48396;48.426;1.500;2022-07-03T01:01:20;21.80;64.50
62363;DHT22;48396;48.426;1.500;2022-07-03T01:03:46;21.70;64.90
62363;DHT22;48396;48.426;1.500;2022-07-03T01:06:15;21.70;65.00
62363;DHT22;48396;48.426;1.500;2022-07-03T01:08:47;21.70;64.70
62363;DHT22;48396;48.426;1.500;2022-07-03T01:16:25;21.80;64.50
62363;DHT22;48396;48.426;1.500;2022-07-03T01:18:59;21.60;65.00
62363;DHT22;48396;48.426;1.500;2022-07-03T01:21:34;21.80;64.70
62363;DHT22;48396;48.426;1.500;2022-07-03T01:24:17;21.70;64.90
62363;DHT22;48396;48.426;1.500;2022-07-03T01:26:47;21.70;64.80
62363;DHT22;48396;48.426;1.500;2022-07-03T01:29:14;21.60;65.10
62363;DHT22;48396;48.426;1.500;2022-07-03T01:31:44;21.60;65.30
62363;DHT22;48396;48.426;1.500;2022-07-03T01:34:12;21.60;65.10
62363;DHT22;48396;48.426;1.500;2022-07-03T01:36:40;21.80;64.20
62363;DHT22;48396;48.426;1.500;2022-07-03T01:39:07;21.70;64.30
62363;DHT22;48396;48.426;1.500;2022-07-03T01:41:35;21.50;64.80
62363;DHT22;48396;48.426;1.500;2022-07-03T01:44:02;21.50;65.30
62363;DHT22;48396;48.426;1.500;2022-07-03T01:46:28;21.30;65.70
62363;DHT22;48396;48.426;1.500;2022-07-03T01:48:54;21.20;66.30
62363;DHT22;48396;48.426;1.500;2022-07-03T01:51:20;21.10;66.50
62363;DHT22;48396;48.426;1.500;2022-07-03T01:53:49;21.10;67.10
62363;DHT22;48396;48.426;1.500;2022-07-03T01:56:15;21.20;66.30
62363;DHT22;48396;48.426;1.500;2022-07-03T01:58:41;21.10;66.80
62363;DHT22;48396;48.426;1.500;2022-07-03T02:03:39;21.10;67.10
62363;DHT22;48396;48.426;1.500;2022-07-03T02:06:34;21.20;66.80
62363;DHT22;48396;48.426;1.500;2022-07-03T02:08:57;20.90;67.20
62363;DHT22;48396;48.426;1.500;2022-07-03T02:11:25;20.80;68.10
62363;DHT22;48396;48.426;1.500;2022-07-03T02:16:30;20.70;68.10
62363;DHT22;48396;48.426;1.500;2022-07-03T02:19:04;20.60;68.70
62363;DHT22;48396;48.426;1.500;2022-07-03T02:21:31;20.80;68.10
62363;DHT22;48396;48.426;1.500;2022-07-03T02:26:34;20.80;67.90
62363;DHT22;48396;48.426;1.500;2022-07-03T02:29:03;20.90;67.50
62363;DHT22;48396;48.426;1.500;2022-07-03T02:31:32;20.80;67.90
62363;DHT22;48396;48.426;1.500;2022-07-03T02:33:59;20.60;68.30
62363;DHT22;48396;48.426;1.500;2022-07-03T02:36:28;20.70;68.20
62363;DHT22;48396;48.426;1.500;2022-07-03T02:38:55;20.50;68.90
62363;DHT22;48396;48.426;1.500;2022-07-03T02:41:23;20.50;68.60
62363;DHT22;48396;48.426;1.500;2022-07-03T02:46:16;20.60;68.50
62363;DHT22;48396;48.426;1.500;2022-07-03T02:49:06;20.60;68.50
62363;DHT22;48396;48.426;1.500;2022-07-03T02:51:36;20.50;68.90
62363;DHT22;48396;48.426;1.500;2022-07-03T02:54:04;20.50;68.80
62363;DHT22;48396;48.426;1.500;2022-07-03T02:56:43;20.40;69.30
62363;DHT22;48396;48.426;1.500;2022-07-03T03:01:55;20.20;70.20
62363;DHT22;48396;48.426;1.500;2022-07-03T03:06:55;20.00;71.70
62363;DHT22;48396;48.426;1.500;2022-07-03T03:09:24;19.90;71.80
62363;DHT22;48396;48.426;1.500;2022-07-03T03:11:51;19.80;72.40
62363;DHT22;48396;48.426;1.500;2022-07-03T03:14:19;19.80;72.50
62363;DHT22;48396;48.426;1.500;2022-07-03T03:16:51;19.90;72.10
62363;DHT22;48396;48.426;1.500;2022-07-03T03:19:21;19.90;72.20
62363;DHT22;48396;48.426;1.500;2022-07-03T03:22:15;19.80;72.00
62363;DHT22;48396;48.426;1.500;2022-07-03T03:24:41;19.70;72.70
62363;DHT22;48396;48.426;1.500;2022-07-03T03:27:07;19.50;73.60
62363;DHT22;48396;48.426;1.500;2022-07-03T03:29:33;19.40;74.00
62363;DHT22;48396;48.426;1.500;2022-07-03T03:31:59;19.50;73.90
62363;DHT22;48396;48.426;1.500;2022-07-03T03:34:24;19.50;74.10
62363;DHT22;48396;48.426;1.500;2022-07-03T03:36:51;19.50;74.00
62363;DHT22;48396;48.426;1.500;2022-07-03T03:39:16;19.70;73.50
62363;DHT22;48396;48.426;1.500;2022-07-03T03:41:42;19.80;72.80
62363;DHT22;48396;48.426;1.500;2022-07-03T03:44:08;19.70;72.80
62363;DHT22;48396;48.426;1.500;2022-07-03T03:46:33;19.70;73.20
62363;DHT22;48396;48.426;1.500;2022-07-03T03:48:59;19.50;74.00
62363;DHT22;48396;48.426;1.500;2022-07-03T03:51:24;19.50;74.30
62363;DHT22;48396;48.426;1.500;2022-07-03T03:53:50;19.60;74.20
62363;DHT22;48396;48.426;1.500;2022-07-03T03:56:16;19.50;73.60
62363;DHT22;48396;48.426;1.500;2022-07-03T03:58:42;19.50;74.20
62363;DHT22;48396;48.426;1.500;2022-07-03T04:01:09;19.40;74.50
62363;DHT22;48396;48.426;1.500;2022-07-03T04:03:35;19.20;74.90
62363;DHT22;48396;48.426;1.500;2022-07-03T04:06:01;19.30;74.90
62363;DHT22;48396;48.426;1.500;2022-07-03T04:08:27;19.50;74.10
62363;DHT22;48396;48.426;1.500;2022-07-03T04:10:53;19.70;73.20
62363;DHT22;48396;48.426;1.500;2022-07-03T04:13:19;19.60;72.90
62363;DHT22;48396;48.426;1.500;2022-07-03T04:15:45;19.50;73.60
62363;DHT22;48396;48.426;1.500;2022-07-03T04:18:11;19.40;73.90
62363;DHT22;48396;48.426;1.500;2022-07-03T04:20:37;19.60;73.60
62363;DHT22;48396;48.426;1.500;2022-07-03T04:23:03;19.30;74.10
62363;DHT22;48396;48.426;1.500;2022-07-03T04:25:28;19.20;74.40
62363;DHT22;48396;48.426;1.500;2022-07-03T04:27:54;19.10;75.30
62363;DHT22;48396;48.426;1.500;2022-07-03T04:30:20;19.20;75.10
62363;DHT22;48396;48.426;1.500;2022-07-03T04:32:46;19.20;74.50
62363;DHT22;48396;48.426;1.500;2022-07-03T04:35:13;19.00;75.40
62363;DHT22;48396;48.426;1.500;2022-07-03T04:37:38;19.10;75.20
62363;DHT22;48396;48.426;1.500;2022-07-03T04:40:04;19.20;74.70
62363;DHT22;48396;48.426;1.500;2022-07-03T04:42:30;19.10;74.90
62363;DHT22;48396;48.426;1.500;2022-07-03T04:44:56;19.00;75.60
62363;DHT22;48396;48.426;1.500;2022-07-03T04:47:21;19.00;75.60
62363;DHT22;48396;48.426;1.500;2022-07-03T04:49:47;18.90;76.00
62363;DHT22;48396;48.426;1.500;2022-07-03T04:52:12;18.90;76.00
62363;DHT22;48396;48.426;1.500;2022-07-03T04:54:38;18.80;76.60
62363;DHT22;48396;48.426;1.500;2022-07-03T04:57:04;18.80;76.90
62363;DHT22;48396;48.426;1.500;2022-07-03T04:59:30;18.70;77.20
62363;DHT22;48396;48.426;1.500;2022-07-03T05:01:55;18.70;77.60
62363;DHT22;48396;48.426;1.500;2022-07-03T05:04:21;18.90;77.10
62363;DHT22;48396;48.426;1.500;2022-07-03T05:06:46;19.20;75.80
62363;DHT22;48396;48.426;1.500;2022-07-03T05:09:13;19.10;76.20
62363;DHT22;48396;48.426;1.500;2022-07-03T05:11:39;18.90;76.60
62363;DHT22;48396;48.426;1.500;2022-07-03T05:14:05;18.90;76.90
62363;DHT22;48396;48.426;1.500;2022-07-03T05:16:30;18.80;77.20
62363;DHT22;48396;48.426;1.500;2022-07-03T05:18:56;18.90;76.80
62363;DHT22;48396;48.426;1.500;2022-07-03T05:21:22;19.10;76.40
62363;DHT22;48396;48.426;1.500;2022-07-03T05:23:48;18.90;76.90
62363;DHT22;48396;48.426;1.500;2022-07-03T05:26:13;19.00;76.80
62363;DHT22;48396;48.426;1.500;2022-07-03T05:28:39;19.00;77.00
62363;DHT22;48396;48.426;1.500;2022-07-03T05:31:05;19.00;76.80
62363;DHT22;48396;48.426;1.500;2022-07-03T05:33:31;19.00;77.10
62363;DHT22;48396;48.426;1.500;2022-07-03T05:35:56;19.00;77.60
62363;DHT22;48396;48.426;1.500;2022-07-03T05:38:22;18.90;77.70
62363;DHT22;48396;48.426;1.500;2022-07-03T05:41:06;19.00;77.70
62363;DHT22;48396;48.426;1.500;2022-07-03T05:43:32;18.90;78.60
62363;DHT22;48396;48.426;1.500;2022-07-03T05:45:57;19.00;78.30
62363;DHT22;48396;48.426;1.500;2022-07-03T05:48:23;19.10;78.10
62363;DHT22;48396;48.426;1.500;2022-07-03T05:50:49;19.20;78.00
62363;DHT22;48396;48.426;1.500;2022-07-03T05:53:14;19.00;79.00
62363;DHT22;48396;48.426;1.500;2022-07-03T05:55:40;19.10;78.90
62363;DHT22;48396;48.426;1.500;2022-07-03T05:58:05;19.10;79.10
62363;DHT22;48396;48.426;1.500;2022-07-03T06:00:31;19.10;79.60
62363;DHT22;48396;48.426;1.500;2022-07-03T06:02:57;19.10;80.10
62363;DHT22;48396;48.426;1.500;2022-07-03T06:05:22;19.20;80.20
62363;DHT22;48396;48.426;1.500;2022-07-03T06:07:48;19.40;80.20
62363;DHT22;48396;48.426;1.500;2022-07-03T06:10:15;19.30;81.00
62363;DHT22;48396;48.426;1.500;2022-07-03T06:12:40;19.30;81.30
62363;DHT22;48396;48.426;1.500;2022-07-03T06:15:06;19.60;80.90
62363;DHT22;48396;48.426;1.500;2022-07-03T06:17:34;19.60;80.80
62363;DHT22;48396;48.426;1.500;2022-07-03T06:19:59;19.70;81.40
62363;DHT22;48396;48.426;1.500;2022-07-03T06:22:25;19.80;82.10
62363;DHT22;48396;48.426;1.500;2022-07-03T06:24:50;19.70;82.60
62363;DHT22;48396;48.426;1.500;2022-07-03T06:27:16;19.80;83.40
62363;DHT22;48396;48.426;1.500;2022-07-03T06:29:42;19.70;84.10
62363;DHT22;48396;48.426;1.500;2022-07-03T06:32:07;19.90;83.70
62363;DHT22;48396;48.426;1.500;2022-07-03T06:34:34;19.90;83.80
62363;DHT22;48396;48.426;1.500;2022-07-03T06:37:00;19.70;85.20
62363;DHT22;48396;48.426;1.500;2022-07-03T06:39:26;19.70;85.50
62363;DHT22;48396;48.426;1.500;2022-07-03T06:41:52;19.80;85.40
62363;DHT22;48396;48.426;1.500;2022-07-03T06:44:18;19.80;85.60
62363;DHT22;48396;48.426;1.500;2022-07-03T06:46:43;19.90;85.10
62363;DHT22;48396;48.426;1.500;2022-07-03T06:49:09;20.00;84.80
62363;DHT22;48396;48.426;1.500;2022-07-03T06:51:36;20.20;84.60
62363;DHT22;48396;48.426;1.500;2022-07-03T06:54:02;20.10;84.30
62363;DHT22;48396;48.426;1.500;2022-07-03T06:56:28;20.20;84.30
62363;DHT22;48396;48.426;1.500;2022-07-03T06:58:53;20.40;83.30
62363;DHT22;48396;48.426;1.500;2022-07-03T07:01:19;20.40;83.20
62363;DHT22;48396;48.426;1.500;2022-07-03T07:03:44;20.30;84.00
62363;DHT22;48396;48.426;1.500;2022-07-03T07:06:10;20.40;84.10
62363;DHT22;48396;48.426;1.500;2022-07-03T07:08:36;20.50;83.20
62363;DHT22;48396;48.426;1.500;2022-07-03T07:11:02;20.60;82.80
62363;DHT22;48396;48.426;1.500;2022-07-03T07:13:27;20.60;82.60
62363;DHT22;48396;48.426;1.500;2022-07-03T07:15:53;20.60;82.60
62363;DHT22;48396;48.426;1.500;2022-07-03T07:18:19;20.60;83.00
62363;DHT22;48396;48.426;1.500;2022-07-03T07:20:44;20.60;83.20
62363;DHT22;48396;48.426;1.500;2022-07-03T07:23:10;20.60;82.20
62363;DHT22;48396;48.426;1.500;2022-07-03T07:25:36;20.60;82.50
62363;DHT22;48396;48.426;1.500;2022-07-03T07:28:02;20.30;82.80
62363;DHT22;48396;48.426;1.500;2022-07-03T07:30:27;20.50;81.90
62363;DHT22;48396;48.426;1.500;2022-07-03T07:32:53;20.50;81.10
62363;DHT22;48396;48.426;1.500;2022-07-03T07:35:19;20.50;81.20
62363;DHT22;48396;48.426;1.500;2022-07-03T07:37:45;20.60;80.70
62363;DHT22;48396;48.426;1.500;2022-07-03T07:40:10;20.60;80.80
62363;DHT22;48396;48.426;1.500;2022-07-03T07:42:37;20.60;80.60
62363;DHT22;48396;48.426;1.500;2022-07-03T07:45:04;20.80;79.80
62363;DHT22;48396;48.426;1.500;2022-07-03T07:47:30;20.90;80.10
62363;DHT22;48396;48.426;1.500;2022-07-03T07:49:56;21.00;79.40
62363;DHT22;48396;48.426;1.500;2022-07-03T07:52:22;21.10;78.30
62363;DHT22;48396;48.426;1.500;2022-07-03T07:54:49;20.90;77.90
62363;DHT22;48396;48.426;1.500;2022-07-03T07:57:15;20.70;78.50
62363;DHT22;48396;48.426;1.500;2022-07-03T07:59:41;20.70;78.10
62363;DHT22;48396;48.426;1.500;2022-07-03T08:02:07;20.60;78.70
62363;DHT22;48396;48.426;1.500;2022-07-03T08:04:51;20.60;80.00
62363;DHT22;48396;48.426;1.500;2022-07-03T08:07:35;20.70;80.40
62363;DHT22;48396;48.426;1.500;2022-07-03T08:10:01;20.80;79.20
62363;DHT22;48396;48.426;1.500;2022-07-03T08:12:26;21.10;77.10
62363;DHT22;48396;48.426;1.500;2022-07-03T08:14:52;21.00;78.20
62363;DHT22;48396;48.426;1.500;2022-07-03T08:17:18;21.00;78.50
62363;DHT22;48396;48.426;1.500;2022-07-03T08:19:43;21.00;78.30
62363;DHT22;48396;48.426;1.500;2022-07-03T08:22:09;21.20;77.40
62363;DHT22;48396;48.426;1.500;2022-07-03T08:24:36;21.40;76.50
62363;DHT22;48396;48.426;1.500;2022-07-03T08:27:03;21.50;76.00
62363;DHT22;48396;48.426;1.500;2022-07-03T08:29:33;21.50;75.50
62363;DHT22;48396;48.426;1.500;2022-07-03T08:31:59;21.60;75.10
62363;DHT22;48396;48.426;1.500;2022-07-03T08:34:25;21.60;73.30
62363;DHT22;48396;48.426;1.500;2022-07-03T08:36:50;21.60;71.90
62363;DHT22;48396;48.426;1.500;2022-07-03T08:39:16;21.50;72.30
62363;DHT22;48396;48.426;1.500;2022-07-03T08:41:42;21.60;72.00
62363;DHT22;48396;48.426;1.500;2022-07-03T08:44:09;21.60;71.20
62363;DHT22;48396;48.426;1.500;2022-07-03T08:46:36;21.50;71.90
62363;DHT22;48396;48.426;1.500;2022-07-03T08:49:03;21.60;71.70
62363;DHT22;48396;48.426;1.500;2022-07-03T08:51:30;21.60;71.80
62363;DHT22;48396;48.426;1.500;2022-07-03T08:53:56;21.60;72.50
62363;DHT22;48396;48.426;1.500;2022-07-03T08:56:25;21.80;71.20
62363;DHT22;48396;48.426;1.500;2022-07-03T08:58:51;21.90;69.50
62363;DHT22;48396;48.426;1.500;2022-07-03T09:01:17;21.80;69.70
62363;DHT22;48396;48.426;1.500;2022-07-03T09:03:43;21.80;69.80
62363;DHT22;48396;48.426;1.500;2022-07-03T09:06:11;21.80;70.60
62363;DHT22;48396;48.426;1.500;2022-07-03T09:08:37;22.00;70.50
62363;DHT22;48396;48.426;1.500;2022-07-03T09:11:04;21.90;69.40
62363;DHT22;48396;48.426;1.500;2022-07-03T09:13:29;21.70;70.80
62363;DHT22;48396;48.426;1.500;2022-07-03T09:15:56;21.90;70.30
62363;DHT22;48396;48.426;1.500;2022-07-03T09:18:35;21.90;70.40
62363;DHT22;48396;48.426;1.500;2022-07-03T09:21:03;22.10;68.80
62363;DHT22;48396;48.426;1.500;2022-07-03T09:23:34;22.10;67.70
62363;DHT22;48396;48.426;1.500;2022-07-03T09:26:02;22.20;68.50
62363;DHT22;48396;48.426;1.500;2022-07-03T09:31:14;22.40;67.00
62363;DHT22;48396;48.426;1.500;2022-07-03T09:33:50;22.50;65.80
62363;DHT22;48396;48.426;1.500;2022-07-03T09:36:16;22.30;66.00
62363;DHT22;48396;48.426;1.500;2022-07-03T09:38:44;22.30;65.30
62363;DHT22;48396;48.426;1.500;2022-07-03T09:41:11;22.40;65.70
62363;DHT22;48396;48.426;1.500;2022-07-03T09:43:36;22.50;64.30
62363;DHT22;48396;48.426;1.500;2022-07-03T09:46:06;22.50;65.60
62363;DHT22;48396;48.426;1.500;2022-07-03T09:48:35;22.50;64.90
62363;DHT22;48396;48.426;1.500;2022-07-03T09:53:46;22.90;64.70
62363;DHT22;48396;48.426;1.500;2022-07-03T09:56:12;22.60;64.10
62363;DHT22;48396;48.426;1.500;2022-07-03T09:58:38;22.60;64.80
62363;DHT22;48396;48.426;1.500;2022-07-03T10:01:19;22.70;63.90
62363;DHT22;48396;48.426;1.500;2022-07-03T10:03:48;22.80;63.40
62363;DHT22;48396;48.426;1.500;2022-07-03T10:06:14;22.80;64.00
62363;DHT22;48396;48.426;1.500;2022-07-03T10:08:41;22.80;63.50
62363;DHT22;48396;48.426;1.500;2022-07-03T10:11:07;22.80;63.80
62363;DHT22;48396;48.426;1.500;2022-07-03T10:13:38;22.80;63.70
62363;DHT22;48396;48.426;1.500;2022-07-03T10:16:06;22.70;63.30
62363;DHT22;48396;48.426;1.500;2022-07-03T10:18:34;22.80;63.80
62363;DHT22;48396;48.426;1.500;2022-07-03T10:21:02;22.90;63.90
62363;DHT22;48396;48.426;1.500;2022-07-03T10:23:30;23.00;62.80
62363;DHT22;48396;48.426;1.500;2022-07-03T10:25:58;23.00;62.30
62363;DHT22;48396;48.426;1.500;2022-07-03T10:28:25;22.90;62.30
62363;DHT22;48396;48.426;1.500;2022-07-03T10:30:51;22.90;63.60
62363;DHT22;48396;48.426;1.500;2022-07-03T10:33:17;23.00;62.90
62363;DHT22;48396;48.426;1.500;2022-07-03T10:35:52;23.10;61.50
62363;DHT22;48396;48.426;1.500;2022-07-03T10:38:25;23.10;61.10
62363;DHT22;48396;48.426;1.500;2022-07-03T10:40:59;23.00;60.70
62363;DHT22;48396;48.426;1.500;2022-07-03T10:43:46;23.00;61.70
62363;DHT22;48396;48.426;1.500;2022-07-03T10:46:31;22.50;61.60
62363;DHT22;48396;48.426;1.500;2022-07-03T10:49:02;22.10;62.30
62363;DHT22;48396;48.426;1.500;2022-07-03T11:07:25;23.10;59.90
62363;DHT22;48396;48.426;1.500;2022-07-03T11:20:31;23.10;59.90
62363;DHT22;48396;48.426;1.500;2022-07-03T11:23:03;23.00;58.50
62363;DHT22;48396;48.426;1.500;2022-07-03T11:25:45;23.10;59.00
62363;DHT22;48396;48.426;1.500;2022-07-03T11:33:45;23.30;59.10
62363;DHT22;48396;48.426;1.500;2022-07-03T11:36:11;23.40;58.40
62363;DHT22;48396;48.426;1.500;2022-07-03T11:38:37;23.50;58.20
62363;DHT22;48396;48.426;1.500;2022-07-03T11:41:06;23.50;58.30
62363;DHT22;48396;48.426;1.500;2022-07-03T11:43:33;23.60;57.90
62363;DHT22;48396;48.426;1.500;2022-07-03T11:46:03;23.70;56.20
62363;DHT22;48396;48.426;1.500;2022-07-03T11:48:29;23.70;56.30
62363;DHT22;48396;48.426;1.500;2022-07-03T11:50:59;23.60;56.70
62363;DHT22;48396;48.426;1.500;2022-07-03T11:53:26;23.60;57.00
62363;DHT22;48396;48.426;1.500;2022-07-03T11:55:58;23.70;56.90
62363;DHT22;48396;48.426;1.500;2022-07-03T11:58:27;23.70;56.30
62363;DHT22;48396;48.426;1.500;2022-07-03T12:01:04;23.80;56.20
62363;DHT22;48396;48.426;1.500;2022-07-03T12:03:30;24.10;55.70
62363;DHT22;48396;48.426;1.500;2022-07-03T12:05:57;24.00;54.80
62363;DHT22;48396;48.426;1.500;2022-07-03T12:08:24;24.00;54.70
62363;DHT22;48396;48.426;1.500;2022-07-03T12:10:50;24.20;54.90
62363;DHT22;48396;48.426;1.500;2022-07-03T12:13:21;24.20;54.90
62363;DHT22;48396;48.426;1.500;2022-07-03T12:15:49;24.10;53.80
62363;DHT22;48396;48.426;1.500;2022-07-03T12:18:15;24.10;53.70
62363;DHT22;48396;48.426;1.500;2022-07-03T12:20:40;24.00;54.20
62363;DHT22;48396;48.426;1.500;2022-07-03T12:23:06;23.80;54.70
62363;DHT22;48396;48.426;1.500;2022-07-03T12:25:37;23.80;54.60
62363;DHT22;48396;48.426;1.500;2022-07-03T12:28:04;24.10;55.90
62363;DHT22;48396;48.426;1.500;2022-07-03T12:30:30;24.10;56.30
62363;DHT22;48396;48.426;1.500;2022-07-03T12:32:56;23.90;55.60
62363;DHT22;48396;48.426;1.500;2022-07-03T12:35:22;24.20;54.30
62363;DHT22;48396;48.426;1.500;2022-07-03T12:37:48;24.10;55.30
62363;DHT22;48396;48.426;1.500;2022-07-03T12:40:14;24.10;56.00
62363;DHT22;48396;48.426;1.500;2022-07-03T12:42:50;24.50;55.20
62363;DHT22;48396;48.426;1.500;2022-07-03T12:45:17;24.60;55.20
62363;DHT22;48396;48.426;1.500;2022-07-03T12:47:43;24.90;53.70
62363;DHT22;48396;48.426;1.500;2022-07-03T12:50:09;24.90;52.80
62363;DHT22;48396;48.426;1.500;2022-07-03T12:52:55;24.90;53.00
62363;DHT22;48396;48.426;1.500;2022-07-03T12:55:21;24.60;52.90
62363;DHT22;48396;48.426;1.500;2022-07-03T12:57:48;24.70;52.20
62363;DHT22;48396;48.426;1.500;2022-07-03T13:00:41;24.80;52.70
62363;DHT22;48396;48.426;1.500;2022-07-03T13:03:08;24.80;53.60
62363;DHT22;48396;48.426;1.500;2022-07-03T13:05:40;24.80;52.90
62363;DHT22;48396;48.426;1.500;2022-07-03T13:08:06;24.70;53.30
62363;DHT22;48396;48.426;1.500;2022-07-03T13:10:32;24.80;52.10
62363;DHT22;48396;48.426;1.500;2022-07-03T13:12:58;24.60;52.00
62363;DHT22;48396;48.426;1.500;2022-07-03T13:15:27;24.60;52.00
62363;DHT22;48396;48.426;1.500;2022-07-03T13:20:25;25.00;51.30
62363;DHT22;48396;48.426;1.500;2022-07-03T13:22:51;25.00;51.30
62363;DHT22;48396;48.426;1.500;2022-07-03T13:25:17;25.10;50.30
62363;DHT22;48396;48.426;1.500;2022-07-03T13:27:43;25.10;50.00
62363;DHT22;48396;48.426;1.500;2022-07-03T13:30:16;25.00;50.10
62363;DHT22;48396;48.426;1.500;2022-07-03T13:32:42;25.10;50.00
62363;DHT22;48396;48.426;1.500;2022-07-03T13:35:08;25.30;50.80
62363;DHT22;48396;48.426;1.500;2022-07-03T13:37:34;24.90;50.20
62363;DHT22;48396;48.426;1.500;2022-07-03T13:40:00;24.60;50.60
62363;DHT22;48396;48.426;1.500;2022-07-03T13:42:26;24.40;51.40
62363;DHT22;48396;48.426;1.500;2022-07-03T13:44:51;24.70;50.40
62363;DHT22;48396;48.426;1.500;2022-07-03T13:47:17;25.00;49.10
62363;DHT22;48396;48.426;1.500;2022-07-03T13:49:43;25.10;48.30
62363;DHT22;48396;48.426;1.500;2022-07-03T13:52:08;25.20;48.40
62363;DHT22;48396;48.426;1.500;2022-07-03T13:54:34;25.00;48.30
62363;DHT22;48396;48.426;1.500;2022-07-03T13:57:00;25.20;48.60
62363;DHT22;48396;48.426;1.500;2022-07-03T13:59:25;25.40;47.40
62363;DHT22;48396;48.426;1.500;2022-07-03T14:01:51;25.60;46.80
62363;DHT22;48396;48.426;1.500;2022-07-03T14:04:17;25.80;46.60
62363;DHT22;48396;48.426;1.500;2022-07-03T14:06:42;25.80;46.40
62363;DHT22;48396;48.426;1.500;2022-07-03T14:09:08;25.60;47.30
62363;DHT22;48396;48.426;1.500;2022-07-03T14:11:33;25.60;47.00
62363;DHT22;48396;48.426;1.500;2022-07-03T14:13:59;25.40;48.20
62363;DHT22;48396;48.426;1.500;2022-07-03T14:16:25;25.30;47.70
62363;DHT22;48396;48.426;1.500;2022-07-03T14:18:50;25.20;47.80
62363;DHT22;48396;48.426;1.500;2022-07-03T14:21:16;25.50;47.90
62363;DHT22;48396;48.426;1.500;2022-07-03T14:23:41;25.50;47.30
62363;DHT22;48396;48.426;1.500;2022-07-03T14:26:07;25.40;47.20
62363;DHT22;48396;48.426;1.500;2022-07-03T14:28:33;25.40;47.30
62363;DHT22;48396;48.426;1.500;2022-07-03T14:31:17;25.40;47.20
62363;DHT22;48396;48.426;1.500;2022-07-03T14:33:50;25.80;46.40
62363;DHT22;48396;48.426;1.500;2022-07-03T14:36:16;25.80;46.70
62363;DHT22;48396;48.426;1.500;2022-07-03T14:38:42;25.80;46.60
62363;DHT22;48396;48.426;1.500;2022-07-03T14:41:08;25.60;46.70
62363;DHT22;48396;48.426;1.500;2022-07-03T14:43:33;25.80;46.80
62363;DHT22;48396;48.426;1.500;2022-07-03T14:46:00;25.80;47.00
62363;DHT22;48396;48.426;1.500;2022-07-03T14:48:26;26.10;46.60
62363;DHT22;48396;48.426;1.500;2022-07-03T14:50:52;26.30;45.80
62363;DHT22;48396;48.426;1.500;2022-07-03T14:53:18;26.50;46.00
62363;DHT22;48396;48.426;1.500;2022-07-03T14:55:45;26.50;44.90
62363;DHT22;48396;48.426;1.500;2022-07-03T14:58:18;26.60;44.40
62363;DHT22;48396;48.426;1.500;2022-07-03T15:00:46;26.30;45.20
62363;DHT22;48396;48.426;1.500;2022-07-03T15:03:17;26.40;44.70
62363;DHT22;48396;48.426;1.500;2022-07-03T15:05:43;26.40;44.50
62363;DHT22;48396;48.426;1.500;2022-07-03T15:10:36;26.80;45.30
62363;DHT22;48396;48.426;1.500;2022-07-03T15:13:04;26.90;45.10
62363;DHT22;48396;48.426;1.500;2022-07-03T15:15:30;27.00;44.90
62363;DHT22;48396;48.426;1.500;2022-07-03T15:17:57;27.20;44.50
62363;DHT22;48396;48.426;1.500;2022-07-03T15:20:23;27.30;44.00
62363;DHT22;48396;48.426;1.500;2022-07-03T15:22:50;27.10;44.70
62363;DHT22;48396;48.426;1.500;2022-07-03T15:25:17;27.10;44.00
62363;DHT22;48396;48.426;1.500;2022-07-03T15:27:49;27.10;43.80
62363;DHT22;48396;48.426;1.500;2022-07-03T15:30:18;27.20;43.50
62363;DHT22;48396;48.426;1.500;2022-07-03T15:32:48;27.30;43.60
62363;DHT22;48396;48.426;1.500;2022-07-03T15:35:14;27.40;43.20
62363;DHT22;48396;48.426;1.500;2022-07-03T15:40:24;27.30;43.40
62363;DHT22;48396;48.426;1.500;2022-07-03T15:46:02;27.50;44.20
62363;DHT22;48396;48.426;1.500;2022-07-03T15:50:45;27.70;43.80
62363;DHT22;48396;48.426;1.500;2022-07-03T15:53:14;27.50;43.50
62363;DHT22;48396;48.426;1.500;2022-07-03T15:55:44;27.40;44.30
62363;DHT22;48396;48.426;1.500;2022-07-03T15:58:12;27.50;43.60
62363;DHT22;48396;48.426;1.500;2022-07-03T16:00:38;27.60;43.90
62363;DHT22;48396;48.426;1.500;2022-07-03T16:05:38;27.70;43.20
62363;DHT22;48396;48.426;1.500;2022-07-03T16:08:07;27.80;43.10
62363;DHT22;48396;48.426;1.500;2022-07-03T16:10:34;28.00;43.40
62363;DHT22;48396;48.426;1.500;2022-07-03T16:13:00;28.30;43.00
62363;DHT22;48396;48.426;1.500;2022-07-03T16:15:30;28.10;43.40
62363;DHT22;48396;48.426;1.500;2022-07-03T16:17:56;28.00;42.80
62363;DHT22;48396;48.426;1.500;2022-07-03T16:20:26;28.00;43.00
62363;DHT22;48396;48.426;1.500;2022-07-03T16:22:54;28.00;43.20
62363;DHT22;48396;48.426;1.500;2022-07-03T16:25:20;28.10;43.10
62363;DHT22;48396;48.426;1.500;2022-07-03T16:27:46;28.30;42.40
62363;DHT22;48396;48.426;1.500;2022-07-03T16:30:12;28.40;42.60
62363;DHT22;48396;48.426;1.500;2022-07-03T16:32:39;28.60;42.30
62363;DHT22;48396;48.426;1.500;2022-07-03T16:40:09;28.60;41.90
62363;DHT22;48396;48.426;1.500;2022-07-03T16:42:35;28.30;42.80
62363;DHT22;48396;48.426;1.500;2022-07-03T16:45:03;28.30;42.80
62363;DHT22;48396;48.426;1.500;2022-07-03T16:47:29;28.40;42.70
62363;DHT22;48396;48.426;1.500;2022-07-03T16:49:55;28.50;42.60
62363;DHT22;48396;48.426;1.500;2022-07-03T16:52:21;28.80;42.30